sensor_id;sensor_type;location;lat;lon;timestamp;P1;durP1;ratioP1;P2;durP2;ratioP2
7683;SDS011;3884;48.616;12.872;2022-11-15T00:01:14;10.97;;;9.20;;
7683;SDS011;3884;48.616;12.872;2022-11-15T00:04:01;10.43;;;8.83;;
7683;SDS011;3884;48.616;12.872;2022-11-15T00:06:49;9.40;;;8.23;;
7683;SDS011;3884;48.616;12.872;2022-11-15T00:09:34;11.50;;;9.53;;
7683;SDS011;3884;48.616;12.872;2022-11-15T00:12:19;11.53;;;9.90;;
7683;SDS011;3884;48.616;12.872;2022-11-15T00:15:06;10.13;;;8.63;;
7683;SDS011;3884;48.616;12.872;2022-11-15T00:17:52;11.10;;;9.70;;
7683;SDS011;3884;48.616;12.872;2022-11-15T00:20:38;12.37;;;9.87;;
7683;SDS011;3884;48.616;12.872;2022-11-15T00:23:24;11.30;;;9.30;;
7683;SDS011;3884;48.616;12.872;2022-11-15T00:26:11;10.13;;;8.83;;
7683;SDS011;3884;48.616;12.872;2022-11-15T00:28:57;8.90;;;7.93;;
7683;SDS011;3884;48.616;12.872;2022-11-15T00:31:43;10.17;;;8.70;;
7683;SDS011;3884;48.616;12.872;2022-11-15T00:34:28;10.53;;;8.30;;
7683;SDS011;3884;48.616;12.872;2022-11-15T00:37:14;11.10;;;8.63;;
7683;SDS011;3884;48.616;12.872;2022-11-15T00:40:01;11.40;;;9.60;;
7683;SDS011;3884;48.616;12.872;2022-11-15T00:42:46;12.50;;;10.03;;
7683;SDS011;3884;48.616;12.872;2022-11-15T00:45:32;12.23;;;10.20;;
7683;SDS011;3884;48.616;12.872;2022-11-15T00:48:17;13.33;;;10.70;;
7683;SDS011;3884;48.616;12.872;2022-11-15T00:51:03;11.90;;;9.27;;
7683;SDS011;3884;48.616;12.872;2022-11-15T00:53:49;9.83;;;8.17;;
7683;SDS011;3884;48.616;12.872;2022-11-15T00:56:36;8.80;;;7.87;;
7683;SDS011;3884;48.616;12.872;2022-11-15T00:59:21;10.93;;;8.90;;
7683;SDS011;3884;48.616;12.872;2022-11-15T01:02:07;10.33;;;8.67;;
7683;SDS011;3884;48.616;12.872;2022-11-15T01:04:52;11.50;;;9.80;;
7683;SDS011;3884;48.616;12.872;2022-11-15T01:07:38;11.93;;;9.50;;
7683;SDS011;3884;48.616;12.872;2022-11-15T01:10:23;12.27;;;10.13;;
7683;SDS011;3884;48.616;12.872;2022-11-15T01:13:10;11.17;;;8.70;;
7683;SDS011;3884;48.616;12.872;2022-11-15T01:15:56;9.60;;;8.20;;
7683;SDS011;3884;48.616;12.872;2022-11-15T01:18:42;11.07;;;8.60;;
7683;SDS011;3884;48.616;12.872;2022-11-15T01:21:29;12.13;;;9.80;;
7683;SDS011;3884;48.616;12.872;2022-11-15T01:24:15;13.77;;;11.37;;
7683;SDS011;3884;48.616;12.872;2022-11-15T01:27:00;12.47;;;10.40;;
7683;SDS011;3884;48.616;12.872;2022-11-15T01:29:47;12.60;;;10.43;;
7683;SDS011;3884;48.616;12.872;2022-11-15T01:32:33;9.80;;;8.43;;
7683;SDS011;3884;48.616;12.872;2022-11-15T01:35:18;11.10;;;9.20;;
7683;SDS011;3884;48.616;12.872;2022-11-15T01:38:05;11.57;;;8.90;;
7683;SDS011;3884;48.616;12.872;2022-11-15T01:40:50;10.93;;;9.23;;
7683;SDS011;3884;48.616;12.872;2022-11-15T01:43:36;11.30;;;9.27;;
7683;SDS011;3884;48.616;12.872;2022-11-15T01:46:25;13.00;;;10.53;;
7683;SDS011;3884;48.616;12.872;2022-11-15T01:49:14;15.90;;;11.03;;
7683;SDS011;3884;48.616;12.872;2022-11-15T01:52:03;12.93;;;11.07;;
7683;SDS011;3884;48.616;12.872;2022-11-15T01:54:53;12.40;;;10.53;;
7683;SDS011;3884;48.616;12.872;2022-11-15T01:57:41;13.17;;;10.43;;
7683;SDS011;3884;48.616;12.872;2022-11-15T02:00:30;13.47;;;10.70;;
7683;SDS011;3884;48.616;12.872;2022-11-15T02:03:17;14.10;;;10.87;;
7683;SDS011;3884;48.616;12.872;2022-11-15T02:06:03;12.93;;;10.37;;
7683;SDS011;3884;48.616;12.872;2022-11-15T02:08:50;13.27;;;11.00;;
7683;SDS011;3884;48.616;12.872;2022-11-15T02:11:36;14.70;;;12.00;;
7683;SDS011;3884;48.616;12.872;2022-11-15T02:14:22;15.57;;;10.47;;
7683;SDS011;3884;48.616;12.872;2022-11-15T02:17:13;15.03;;;11.40;;
7683;SDS011;3884;48.616;12.872;2022-11-15T02:23:41;11.00;;;9.40;;
7683;SDS011;3884;48.616;12.872;2022-11-15T02:26:52;12.17;;;9.60;;
7683;SDS011;3884;48.616;12.872;2022-11-15T02:33:26;9.93;;;8.63;;
7683;SDS011;3884;48.616;12.872;2022-11-15T02:36:18;11.60;;;9.37;;
7683;SDS011;3884;48.616;12.872;2022-11-15T02:39:14;12.23;;;9.60;;
7683;SDS011;3884;48.616;12.872;2022-11-15T02:42:07;12.37;;;9.70;;
7683;SDS011;3884;48.616;12.872;2022-11-15T02:45:12;12.00;;;10.23;;
7683;SDS011;3884;48.616;12.872;2022-11-15T02:48:03;14.53;;;10.80;;
7683;SDS011;3884;48.616;12.872;2022-11-15T02:50:50;14.23;;;11.50;;
7683;SDS011;3884;48.616;12.872;2022-11-15T02:53:37;14.60;;;10.77;;
7683;SDS011;3884;48.616;12.872;2022-11-15T02:56:22;11.83;;;10.47;;
7683;SDS011;3884;48.616;12.872;2022-11-15T02:59:12;17.40;;;15.63;;
7683;SDS011;3884;48.616;12.872;2022-11-15T03:02:08;15.73;;;14.23;;
7683;SDS011;3884;48.616;12.872;2022-11-15T03:05:08;14.33;;;12.57;;
7683;SDS011;3884;48.616;12.872;2022-11-15T03:08:04;14.73;;;12.00;;
7683;SDS011;3884;48.616;12.872;2022-11-15T03:10:55;15.83;;;12.13;;
7683;SDS011;3884;48.616;12.872;2022-11-15T03:13:50;12.70;;;10.90;;
7683;SDS011;3884;48.616;12.872;2022-11-15T03:16:41;12.10;;;10.03;;
7683;SDS011;3884;48.616;12.872;2022-11-15T03:19:32;10.70;;;9.17;;
7683;SDS011;3884;48.616;12.872;2022-11-15T03:22:25;10.57;;;9.47;;
7683;SDS011;3884;48.616;12.872;2022-11-15T03:25:16;12.87;;;10.03;;
7683;SDS011;3884;48.616;12.872;2022-11-15T03:28:05;12.77;;;9.63;;
7683;SDS011;3884;48.616;12.872;2022-11-15T03:30:54;10.80;;;8.90;;
7683;SDS011;3884;48.616;12.872;2022-11-15T03:33:41;12.03;;;10.50;;
7683;SDS011;3884;48.616;12.872;2022-11-15T03:36:27;13.00;;;11.00;;
7683;SDS011;3884;48.616;12.872;2022-11-15T03:39:18;17.20;;;11.33;;
7683;SDS011;3884;48.616;12.872;2022-11-15T03:42:08;14.10;;;11.17;;
7683;SDS011;3884;48.616;12.872;2022-11-15T03:45:03;12.50;;;10.13;;
7683;SDS011;3884;48.616;12.872;2022-11-15T03:47:58;12.70;;;10.33;;
7683;SDS011;3884;48.616;12.872;2022-11-15T03:50:46;12.10;;;9.43;;
7683;SDS011;3884;48.616;12.872;2022-11-15T03:53:32;10.67;;;8.60;;
7683;SDS011;3884;48.616;12.872;2022-11-15T03:56:19;12.43;;;10.53;;
7683;SDS011;3884;48.616;12.872;2022-11-15T03:59:05;15.13;;;10.43;;
7683;SDS011;3884;48.616;12.872;2022-11-15T04:01:50;11.23;;;9.57;;
7683;SDS011;3884;48.616;12.872;2022-11-15T04:04:36;10.03;;;8.30;;
7683;SDS011;3884;48.616;12.872;2022-11-15T04:07:21;10.63;;;8.63;;
7683;SDS011;3884;48.616;12.872;2022-11-15T04:10:07;12.30;;;10.00;;
7683;SDS011;3884;48.616;12.872;2022-11-15T04:12:55;12.73;;;11.10;;
7683;SDS011;3884;48.616;12.872;2022-11-15T04:15:41;17.67;;;12.70;;
7683;SDS011;3884;48.616;12.872;2022-11-15T04:18:27;17.37;;;13.30;;
7683;SDS011;3884;48.616;12.872;2022-11-15T04:21:12;21.20;;;15.87;;
7683;SDS011;3884;48.616;12.872;2022-11-15T04:24:16;17.80;;;13.90;;
7683;SDS011;3884;48.616;12.872;2022-11-15T04:27:01;18.00;;;12.77;;
7683;SDS011;3884;48.616;12.872;2022-11-15T04:29:48;17.37;;;14.07;;
7683;SDS011;3884;48.616;12.872;2022-11-15T04:32:34;20.90;;;14.90;;
7683;SDS011;3884;48.616;12.872;2022-11-15T04:35:19;21.77;;;15.63;;
7683;SDS011;3884;48.616;12.872;2022-11-15T04:38:06;18.83;;;15.13;;
7683;SDS011;3884;48.616;12.872;2022-11-15T04:40:52;21.50;;;16.43;;
7683;SDS011;3884;48.616;12.872;2022-11-15T04:43:38;21.13;;;15.80;;
7683;SDS011;3884;48.616;12.872;2022-11-15T04:46:25;18.00;;;14.23;;
7683;SDS011;3884;48.616;12.872;2022-11-15T04:49:10;17.33;;;12.90;;
7683;SDS011;3884;48.616;12.872;2022-11-15T04:51:56;15.77;;;12.10;;
7683;SDS011;3884;48.616;12.872;2022-11-15T04:54:41;14.40;;;10.93;;
7683;SDS011;3884;48.616;12.872;2022-11-15T04:57:27;15.03;;;11.17;;
7683;SDS011;3884;48.616;12.872;2022-11-15T05:00:13;13.60;;;10.73;;
7683;SDS011;3884;48.616;12.872;2022-11-15T05:03:02;18.60;;;12.80;;
7683;SDS011;3884;48.616;12.872;2022-11-15T05:06:05;15.17;;;12.33;;
7683;SDS011;3884;48.616;12.872;2022-11-15T05:08:51;15.30;;;11.17;;
7683;SDS011;3884;48.616;12.872;2022-11-15T05:11:36;14.77;;;11.03;;
7683;SDS011;3884;48.616;12.872;2022-11-15T05:14:22;14.30;;;11.07;;
7683;SDS011;3884;48.616;12.872;2022-11-15T05:17:07;16.67;;;12.07;;
7683;SDS011;3884;48.616;12.872;2022-11-15T05:19:54;15.90;;;13.50;;
7683;SDS011;3884;48.616;12.872;2022-11-15T05:22:40;17.57;;;13.90;;
7683;SDS011;3884;48.616;12.872;2022-11-15T05:25:26;16.80;;;13.60;;
7683;SDS011;3884;48.616;12.872;2022-11-15T05:28:12;18.03;;;12.73;;
7683;SDS011;3884;48.616;12.872;2022-11-15T05:31:00;15.87;;;11.40;;
7683;SDS011;3884;48.616;12.872;2022-11-15T05:33:46;16.13;;;12.50;;
7683;SDS011;3884;48.616;12.872;2022-11-15T05:36:33;14.03;;;11.17;;
7683;SDS011;3884;48.616;12.872;2022-11-15T05:39:21;15.03;;;11.77;;
7683;SDS011;3884;48.616;12.872;2022-11-15T05:42:07;19.07;;;13.93;;
7683;SDS011;3884;48.616;12.872;2022-11-15T05:44:55;20.43;;;16.03;;
7683;SDS011;3884;48.616;12.872;2022-11-15T05:47:42;18.77;;;15.17;;
7683;SDS011;3884;48.616;12.872;2022-11-15T05:50:29;21.23;;;15.33;;
7683;SDS011;3884;48.616;12.872;2022-11-15T05:53:16;18.33;;;14.30;;
7683;SDS011;3884;48.616;12.872;2022-11-15T05:56:06;15.73;;;11.83;;
7683;SDS011;3884;48.616;12.872;2022-11-15T05:58:53;15.67;;;11.87;;
7683;SDS011;3884;48.616;12.872;2022-11-15T06:01:41;29.63;;;18.93;;
7683;SDS011;3884;48.616;12.872;2022-11-15T06:04:27;20.90;;;14.03;;
7683;SDS011;3884;48.616;12.872;2022-11-15T06:07:12;17.57;;;14.23;;
7683;SDS011;3884;48.616;12.872;2022-11-15T06:09:59;22.07;;;14.43;;
7683;SDS011;3884;48.616;12.872;2022-11-15T06:12:44;16.93;;;13.67;;
7683;SDS011;3884;48.616;12.872;2022-11-15T06:15:31;16.20;;;13.20;;
7683;SDS011;3884;48.616;12.872;2022-11-15T06:18:16;18.47;;;14.17;;
7683;SDS011;3884;48.616;12.872;2022-11-15T06:21:02;511.63;;;335.07;;
7683;SDS011;3884;48.616;12.872;2022-11-15T06:23:48;658.73;;;432.20;;
7683;SDS011;3884;48.616;12.872;2022-11-15T06:26:35;559.90;;;369.23;;
7683;SDS011;3884;48.616;12.872;2022-11-15T06:29:20;374.30;;;230.77;;
7683;SDS011;3884;48.616;12.872;2022-11-15T06:32:06;92.10;;;59.80;;
7683;SDS011;3884;48.616;12.872;2022-11-15T06:34:52;22.73;;;16.10;;
7683;SDS011;3884;48.616;12.872;2022-11-15T06:37:37;17.87;;;15.17;;
7683;SDS011;3884;48.616;12.872;2022-11-15T06:40:23;21.27;;;16.07;;
7683;SDS011;3884;48.616;12.872;2022-11-15T06:43:10;22.00;;;16.73;;
7683;SDS011;3884;48.616;12.872;2022-11-15T06:45:56;26.63;;;18.77;;
7683;SDS011;3884;48.616;12.872;2022-11-15T06:48:43;26.13;;;18.67;;
7683;SDS011;3884;48.616;12.872;2022-11-15T06:51:28;32.10;;;22.90;;
7683;SDS011;3884;48.616;12.872;2022-11-15T06:54:14;122.63;;;91.77;;
7683;SDS011;3884;48.616;12.872;2022-11-15T06:56:59;42.77;;;30.20;;
7683;SDS011;3884;48.616;12.872;2022-11-15T06:59:46;34.50;;;26.03;;
7683;SDS011;3884;48.616;12.872;2022-11-15T07:02:32;63.80;;;47.73;;
7683;SDS011;3884;48.616;12.872;2022-11-15T07:05:17;52.57;;;39.70;;
7683;SDS011;3884;48.616;12.872;2022-11-15T07:08:03;54.37;;;38.00;;
7683;SDS011;3884;48.616;12.872;2022-11-15T07:10:48;49.53;;;35.20;;
7683;SDS011;3884;48.616;12.872;2022-11-15T07:13:35;45.20;;;32.67;;
7683;SDS011;3884;48.616;12.872;2022-11-15T07:16:22;51.87;;;37.63;;
7683;SDS011;3884;48.616;12.872;2022-11-15T07:19:08;37.83;;;28.83;;
7683;SDS011;3884;48.616;12.872;2022-11-15T07:21:54;88.87;;;74.60;;
7683;SDS011;3884;48.616;12.872;2022-11-15T07:24:39;66.73;;;52.87;;
7683;SDS011;3884;48.616;12.872;2022-11-15T07:27:25;61.50;;;48.83;;
7683;SDS011;3884;48.616;12.872;2022-11-15T07:30:11;55.97;;;47.03;;
7683;SDS011;3884;48.616;12.872;2022-11-15T07:32:59;40.80;;;32.23;;
7683;SDS011;3884;48.616;12.872;2022-11-15T07:35:45;34.43;;;26.23;;
7683;SDS011;3884;48.616;12.872;2022-11-15T07:38:33;35.43;;;24.67;;
7683;SDS011;3884;48.616;12.872;2022-11-15T07:41:19;38.17;;;26.20;;
7683;SDS011;3884;48.616;12.872;2022-11-15T07:44:05;33.37;;;25.17;;
7683;SDS011;3884;48.616;12.872;2022-11-15T07:46:51;34.43;;;24.63;;
7683;SDS011;3884;48.616;12.872;2022-11-15T07:49:38;33.50;;;26.13;;
7683;SDS011;3884;48.616;12.872;2022-11-15T07:52:23;45.30;;;31.83;;
7683;SDS011;3884;48.616;12.872;2022-11-15T07:55:09;52.20;;;39.27;;
7683;SDS011;3884;48.616;12.872;2022-11-15T07:57:59;51.03;;;37.67;;
7683;SDS011;3884;48.616;12.872;2022-11-15T08:00:46;50.20;;;36.70;;
7683;SDS011;3884;48.616;12.872;2022-11-15T08:03:32;44.93;;;33.80;;
7683;SDS011;3884;48.616;12.872;2022-11-15T08:06:19;43.87;;;33.37;;
7683;SDS011;3884;48.616;12.872;2022-11-15T08:09:04;51.20;;;37.23;;
7683;SDS011;3884;48.616;12.872;2022-11-15T08:11:50;56.87;;;41.73;;
7683;SDS011;3884;48.616;12.872;2022-11-15T08:14:35;53.60;;;40.60;;
7683;SDS011;3884;48.616;12.872;2022-11-15T08:17:22;53.67;;;40.13;;
7683;SDS011;3884;48.616;12.872;2022-11-15T08:20:13;44.50;;;34.37;;
7683;SDS011;3884;48.616;12.872;2022-11-15T08:23:02;31.37;;;24.57;;
7683;SDS011;3884;48.616;12.872;2022-11-15T08:25:49;30.50;;;25.90;;
7683;SDS011;3884;48.616;12.872;2022-11-15T08:28:34;29.13;;;23.60;;
7683;SDS011;3884;48.616;12.872;2022-11-15T08:31:20;41.27;;;32.47;;
7683;SDS011;3884;48.616;12.872;2022-11-15T08:34:05;34.47;;;26.63;;
7683;SDS011;3884;48.616;12.872;2022-11-15T08:36:51;30.77;;;23.93;;
7683;SDS011;3884;48.616;12.872;2022-11-15T08:39:38;27.77;;;22.40;;
7683;SDS011;3884;48.616;12.872;2022-11-15T08:42:24;27.97;;;23.20;;
7683;SDS011;3884;48.616;12.872;2022-11-15T08:45:09;25.87;;;21.40;;
7683;SDS011;3884;48.616;12.872;2022-11-15T08:47:55;29.07;;;22.93;;
7683;SDS011;3884;48.616;12.872;2022-11-15T08:50:41;27.70;;;22.70;;
7683;SDS011;3884;48.616;12.872;2022-11-15T08:53:27;27.33;;;21.77;;
7683;SDS011;3884;48.616;12.872;2022-11-15T08:56:14;23.77;;;20.17;;
7683;SDS011;3884;48.616;12.872;2022-11-15T08:59:05;21.00;;;17.50;;
7683;SDS011;3884;48.616;12.872;2022-11-15T09:01:53;21.23;;;16.70;;
7683;SDS011;3884;48.616;12.872;2022-11-15T09:04:39;21.03;;;17.00;;
7683;SDS011;3884;48.616;12.872;2022-11-15T09:07:26;22.80;;;17.40;;
7683;SDS011;3884;48.616;12.872;2022-11-15T09:10:13;20.67;;;17.30;;
7683;SDS011;3884;48.616;12.872;2022-11-15T09:13:01;20.97;;;17.83;;
7683;SDS011;3884;48.616;12.872;2022-11-15T09:15:46;23.57;;;19.27;;
7683;SDS011;3884;48.616;12.872;2022-11-15T09:18:32;23.73;;;19.80;;
7683;SDS011;3884;48.616;12.872;2022-11-15T09:21:17;28.63;;;21.00;;
7683;SDS011;3884;48.616;12.872;2022-11-15T09:24:03;25.80;;;20.33;;
7683;SDS011;3884;48.616;12.872;2022-11-15T09:26:49;24.43;;;19.47;;
7683;SDS011;3884;48.616;12.872;2022-11-15T09:29:36;23.87;;;19.03;;
7683;SDS011;3884;48.616;12.872;2022-11-15T09:32:21;23.20;;;18.90;;
7683;SDS011;3884;48.616;12.872;2022-11-15T09:35:07;23.87;;;19.37;;
7683;SDS011;3884;48.616;12.872;2022-11-15T09:37:52;25.87;;;19.57;;
7683;SDS011;3884;48.616;12.872;2022-11-15T09:40:38;25.23;;;19.77;;
7683;SDS011;3884;48.616;12.872;2022-11-15T09:43:26;23.37;;;19.67;;
7683;SDS011;3884;48.616;12.872;2022-11-15T09:46:19;26.10;;;21.00;;
7683;SDS011;3884;48.616;12.872;2022-11-15T09:49:21;24.67;;;19.77;;
7683;SDS011;3884;48.616;12.872;2022-11-15T09:52:11;26.73;;;21.03;;
7683;SDS011;3884;48.616;12.872;2022-11-15T09:54:39;24.33;;;20.80;;
7683;SDS011;3884;48.616;12.872;2022-11-15T09:57:10;26.57;;;20.60;;
7683;SDS011;3884;48.616;12.872;2022-11-15T09:59:46;25.97;;;21.70;;
7683;SDS011;3884;48.616;12.872;2022-11-15T10:02:43;25.93;;;21.47;;
7683;SDS011;3884;48.616;12.872;2022-11-15T10:05:22;28.13;;;21.73;;
7683;SDS011;3884;48.616;12.872;2022-11-15T10:07:55;28.73;;;21.30;;
7683;SDS011;3884;48.616;12.872;2022-11-15T10:10:29;27.27;;;22.23;;
7683;SDS011;3884;48.616;12.872;2022-11-15T10:13:00;27.80;;;21.60;;
7683;SDS011;3884;48.616;12.872;2022-11-15T10:15:28;27.87;;;20.80;;
7683;SDS011;3884;48.616;12.872;2022-11-15T10:18:01;26.67;;;20.83;;
7683;SDS011;3884;48.616;12.872;2022-11-15T10:20:40;24.87;;;20.17;;
7683;SDS011;3884;48.616;12.872;2022-11-15T10:23:13;27.07;;;20.37;;
7683;SDS011;3884;48.616;12.872;2022-11-15T10:25:42;26.33;;;20.40;;
7683;SDS011;3884;48.616;12.872;2022-11-15T10:28:11;26.60;;;19.93;;
7683;SDS011;3884;48.616;12.872;2022-11-15T10:30:42;26.37;;;20.27;;
7683;SDS011;3884;48.616;12.872;2022-11-15T10:33:13;24.40;;;19.17;;
7683;SDS011;3884;48.616;12.872;2022-11-15T10:38:54;23.70;;;18.93;;
7683;SDS011;3884;48.616;12.872;2022-11-15T10:41:31;24.13;;;19.57;;
7683;SDS011;3884;48.616;12.872;2022-11-15T10:44:02;23.73;;;18.40;;
7683;SDS011;3884;48.616;12.872;2022-11-15T10:46:45;24.30;;;19.93;;
7683;SDS011;3884;48.616;12.872;2022-11-15T10:49:17;24.03;;;19.00;;
7683;SDS011;3884;48.616;12.872;2022-11-15T10:51:46;23.57;;;18.83;;
7683;SDS011;3884;48.616;12.872;2022-11-15T10:54:18;25.13;;;19.70;;
7683;SDS011;3884;48.616;12.872;2022-11-15T10:56:50;25.90;;;20.00;;
7683;SDS011;3884;48.616;12.872;2022-11-15T10:59:30;25.80;;;19.57;;
7683;SDS011;3884;48.616;12.872;2022-11-15T11:01:59;24.33;;;19.57;;
7683;SDS011;3884;48.616;12.872;2022-11-15T11:04:27;24.67;;;19.03;;
7683;SDS011;3884;48.616;12.872;2022-11-15T11:06:55;22.50;;;19.00;;
7683;SDS011;3884;48.616;12.872;2022-11-15T11:09:28;23.97;;;19.27;;
7683;SDS011;3884;48.616;12.872;2022-11-15T11:11:58;25.87;;;19.50;;
7683;SDS011;3884;48.616;12.872;2022-11-15T11:14:26;23.43;;;20.13;;
7683;SDS011;3884;48.616;12.872;2022-11-15T11:16:58;24.53;;;19.73;;
7683;SDS011;3884;48.616;12.872;2022-11-15T11:19:37;24.57;;;19.33;;
7683;SDS011;3884;48.616;12.872;2022-11-15T11:22:17;27.97;;;21.23;;
7683;SDS011;3884;48.616;12.872;2022-11-15T11:24:51;26.53;;;20.90;;
7683;SDS011;3884;48.616;12.872;2022-11-15T11:27:29;24.93;;;20.07;;
7683;SDS011;3884;48.616;12.872;2022-11-15T11:30:08;23.63;;;19.80;;
7683;SDS011;3884;48.616;12.872;2022-11-15T11:35:41;27.37;;;20.00;;
7683;SDS011;3884;48.616;12.872;2022-11-15T11:38:22;24.43;;;20.20;;
7683;SDS011;3884;48.616;12.872;2022-11-15T11:41:04;26.03;;;20.03;;
7683;SDS011;3884;48.616;12.872;2022-11-15T11:43:38;24.57;;;19.77;;
7683;SDS011;3884;48.616;12.872;2022-11-15T11:46:29;24.67;;;20.50;;
7683;SDS011;3884;48.616;12.872;2022-11-15T11:49:08;24.87;;;20.80;;
7683;SDS011;3884;48.616;12.872;2022-11-15T11:51:38;27.20;;;20.97;;
7683;SDS011;3884;48.616;12.872;2022-11-15T11:54:10;25.20;;;20.50;;
7683;SDS011;3884;48.616;12.872;2022-11-15T11:56:41;24.53;;;18.67;;
7683;SDS011;3884;48.616;12.872;2022-11-15T11:59:12;24.80;;;20.43;;
7683;SDS011;3884;48.616;12.872;2022-11-15T12:01:47;24.93;;;19.77;;
7683;SDS011;3884;48.616;12.872;2022-11-15T12:04:15;25.80;;;19.90;;
7683;SDS011;3884;48.616;12.872;2022-11-15T12:06:49;23.60;;;19.53;;
7683;SDS011;3884;48.616;12.872;2022-11-15T12:09:21;26.03;;;19.60;;
7683;SDS011;3884;48.616;12.872;2022-11-15T12:11:55;23.30;;;19.47;;
7683;SDS011;3884;48.616;12.872;2022-11-15T12:14:30;24.57;;;19.83;;
7683;SDS011;3884;48.616;12.872;2022-11-15T12:17:00;23.30;;;18.67;;
7683;SDS011;3884;48.616;12.872;2022-11-15T12:19:28;22.23;;;17.73;;
7683;SDS011;3884;48.616;12.872;2022-11-15T12:21:58;24.30;;;18.17;;
7683;SDS011;3884;48.616;12.872;2022-11-15T12:24:29;23.30;;;19.13;;
7683;SDS011;3884;48.616;12.872;2022-11-15T12:27:01;23.47;;;18.70;;
7683;SDS011;3884;48.616;12.872;2022-11-15T12:29:33;20.97;;;17.03;;
7683;SDS011;3884;48.616;12.872;2022-11-15T12:32:03;20.33;;;16.53;;
7683;SDS011;3884;48.616;12.872;2022-11-15T12:34:44;20.37;;;17.23;;
7683;SDS011;3884;48.616;12.872;2022-11-15T12:37:34;19.87;;;16.10;;
7683;SDS011;3884;48.616;12.872;2022-11-15T12:40:30;20.03;;;16.30;;
7683;SDS011;3884;48.616;12.872;2022-11-15T12:43:03;21.23;;;16.90;;
7683;SDS011;3884;48.616;12.872;2022-11-15T12:45:45;20.17;;;15.83;;
7683;SDS011;3884;48.616;12.872;2022-11-15T12:51:19;23.07;;;17.30;;
7683;SDS011;3884;48.616;12.872;2022-11-15T12:53:48;21.83;;;16.97;;
7683;SDS011;3884;48.616;12.872;2022-11-15T12:56:20;19.20;;;16.63;;
7683;SDS011;3884;48.616;12.872;2022-11-15T12:58:49;19.77;;;15.73;;
7683;SDS011;3884;48.616;12.872;2022-11-15T13:04:27;18.40;;;15.40;;
7683;SDS011;3884;48.616;12.872;2022-11-15T13:06:58;19.30;;;15.43;;
7683;SDS011;3884;48.616;12.872;2022-11-15T13:15:30;18.87;;;15.17;;
7683;SDS011;3884;48.616;12.872;2022-11-15T13:21:47;19.57;;;15.33;;
7683;SDS011;3884;48.616;12.872;2022-11-15T13:24:33;17.80;;;14.73;;
7683;SDS011;3884;48.616;12.872;2022-11-15T13:27:01;18.93;;;15.40;;
7683;SDS011;3884;48.616;12.872;2022-11-15T13:29:28;19.17;;;15.07;;
7683;SDS011;3884;48.616;12.872;2022-11-15T13:31:55;20.13;;;15.97;;
7683;SDS011;3884;48.616;12.872;2022-11-15T13:34:25;17.63;;;14.67;;
7683;SDS011;3884;48.616;12.872;2022-11-15T13:36:53;18.70;;;15.07;;
7683;SDS011;3884;48.616;12.872;2022-11-15T13:39:26;17.00;;;14.83;;
7683;SDS011;3884;48.616;12.872;2022-11-15T13:41:54;19.17;;;15.33;;
7683;SDS011;3884;48.616;12.872;2022-11-15T13:44:24;19.07;;;15.63;;
7683;SDS011;3884;48.616;12.872;2022-11-15T13:49:39;21.17;;;15.93;;
7683;SDS011;3884;48.616;12.872;2022-11-15T13:52:07;20.10;;;15.70;;
7683;SDS011;3884;48.616;12.872;2022-11-15T13:54:40;20.20;;;16.10;;
7683;SDS011;3884;48.616;12.872;2022-11-15T13:57:10;17.60;;;13.73;;
7683;SDS011;3884;48.616;12.872;2022-11-15T13:59:49;19.47;;;16.00;;
7683;SDS011;3884;48.616;12.872;2022-11-15T14:02:18;20.67;;;16.17;;
7683;SDS011;3884;48.616;12.872;2022-11-15T14:04:48;20.87;;;15.60;;
7683;SDS011;3884;48.616;12.872;2022-11-15T14:07:17;21.87;;;15.47;;
7683;SDS011;3884;48.616;12.872;2022-11-15T14:09:47;20.43;;;15.63;;
7683;SDS011;3884;48.616;12.872;2022-11-15T14:12:22;19.00;;;15.27;;
7683;SDS011;3884;48.616;12.872;2022-11-15T14:14:52;20.47;;;15.50;;
7683;SDS011;3884;48.616;12.872;2022-11-15T14:17:21;20.67;;;15.50;;
7683;SDS011;3884;48.616;12.872;2022-11-15T14:19:59;19.27;;;15.37;;
7683;SDS011;3884;48.616;12.872;2022-11-15T14:22:27;17.27;;;14.70;;
7683;SDS011;3884;48.616;12.872;2022-11-15T14:25:06;18.93;;;14.30;;
7683;SDS011;3884;48.616;12.872;2022-11-15T14:27:41;17.20;;;14.03;;
7683;SDS011;3884;48.616;12.872;2022-11-15T14:30:14;17.60;;;13.43;;
7683;SDS011;3884;48.616;12.872;2022-11-15T14:32:43;16.53;;;13.17;;
7683;SDS011;3884;48.616;12.872;2022-11-15T14:35:14;16.63;;;13.53;;
7683;SDS011;3884;48.616;12.872;2022-11-15T14:37:43;18.50;;;13.97;;
7683;SDS011;3884;48.616;12.872;2022-11-15T14:40:11;15.77;;;13.93;;
7683;SDS011;3884;48.616;12.872;2022-11-15T14:42:40;21.53;;;13.53;;
7683;SDS011;3884;48.616;12.872;2022-11-15T14:45:09;15.87;;;12.90;;
7683;SDS011;3884;48.616;12.872;2022-11-15T14:47:40;18.33;;;14.07;;
7683;SDS011;3884;48.616;12.872;2022-11-15T14:50:10;16.13;;;12.80;;
7683;SDS011;3884;48.616;12.872;2022-11-15T14:52:38;13.73;;;12.27;;
7683;SDS011;3884;48.616;12.872;2022-11-15T14:55:10;18.77;;;12.77;;
7683;SDS011;3884;48.616;12.872;2022-11-15T14:57:42;16.33;;;12.33;;
7683;SDS011;3884;48.616;12.872;2022-11-15T15:00:10;15.00;;;12.37;;
7683;SDS011;3884;48.616;12.872;2022-11-15T15:02:38;16.00;;;13.20;;
7683;SDS011;3884;48.616;12.872;2022-11-15T15:05:12;17.70;;;13.13;;
7683;SDS011;3884;48.616;12.872;2022-11-15T15:07:40;17.03;;;13.07;;
7683;SDS011;3884;48.616;12.872;2022-11-15T15:10:07;16.60;;;12.83;;
7683;SDS011;3884;48.616;12.872;2022-11-15T15:12:35;16.57;;;12.37;;
7683;SDS011;3884;48.616;12.872;2022-11-15T15:15:02;16.57;;;12.20;;
7683;SDS011;3884;48.616;12.872;2022-11-15T15:17:29;15.00;;;12.03;;
7683;SDS011;3884;48.616;12.872;2022-11-15T15:19:57;16.47;;;12.13;;
7683;SDS011;3884;48.616;12.872;2022-11-15T15:22:24;20.47;;;14.83;;
7683;SDS011;3884;48.616;12.872;2022-11-15T15:24:54;18.23;;;13.57;;
7683;SDS011;3884;48.616;12.872;2022-11-15T15:27:21;16.17;;;13.17;;
7683;SDS011;3884;48.616;12.872;2022-11-15T15:29:48;19.57;;;14.13;;
7683;SDS011;3884;48.616;12.872;2022-11-15T15:32:15;16.53;;;13.80;;
7683;SDS011;3884;48.616;12.872;2022-11-15T15:34:42;17.57;;;13.07;;
7683;SDS011;3884;48.616;12.872;2022-11-15T15:39:48;19.37;;;14.17;;
7683;SDS011;3884;48.616;12.872;2022-11-15T15:42:16;18.93;;;13.40;;
7683;SDS011;3884;48.616;12.872;2022-11-15T15:44:42;17.90;;;13.93;;
7683;SDS011;3884;48.616;12.872;2022-11-15T15:47:10;32.87;;;24.40;;
7683;SDS011;3884;48.616;12.872;2022-11-15T15:49:39;29.47;;;22.53;;
7683;SDS011;3884;48.616;12.872;2022-11-15T15:52:06;57.73;;;41.77;;
7683;SDS011;3884;48.616;12.872;2022-11-15T15:54:34;26.47;;;19.40;;
7683;SDS011;3884;48.616;12.872;2022-11-15T15:57:01;25.37;;;19.10;;
7683;SDS011;3884;48.616;12.872;2022-11-15T15:59:28;28.37;;;22.53;;
7683;SDS011;3884;48.616;12.872;2022-11-15T16:01:55;28.70;;;22.47;;
7683;SDS011;3884;48.616;12.872;2022-11-15T16:04:22;20.33;;;17.10;;
7683;SDS011;3884;48.616;12.872;2022-11-15T16:06:49;18.87;;;15.03;;
7683;SDS011;3884;48.616;12.872;2022-11-15T16:09:18;19.03;;;14.40;;
7683;SDS011;3884;48.616;12.872;2022-11-15T16:12:08;16.87;;;13.70;;
7683;SDS011;3884;48.616;12.872;2022-11-15T16:14:35;18.30;;;13.80;;
7683;SDS011;3884;48.616;12.872;2022-11-15T16:17:02;21.77;;;16.20;;
7683;SDS011;3884;48.616;12.872;2022-11-15T16:19:29;32.27;;;19.57;;
7683;SDS011;3884;48.616;12.872;2022-11-15T16:21:56;20.73;;;16.00;;
7683;SDS011;3884;48.616;12.872;2022-11-15T16:24:23;22.23;;;14.70;;
7683;SDS011;3884;48.616;12.872;2022-11-15T16:26:50;21.10;;;16.00;;
7683;SDS011;3884;48.616;12.872;2022-11-15T16:29:19;18.53;;;15.23;;
7683;SDS011;3884;48.616;12.872;2022-11-15T16:31:46;19.63;;;14.33;;